PWSweather.com
Personal Weather Stations
Station Observations
948974
Valtournenche, AostaIT 11028

ValtournencheAostaIT 11028

Lat: 45.877222, Lon: 7.625556

Elevation: 5085.3018

Station Type: PCE-FWS 20

http://www.cdso.it

High Low Average
Temperature 67.3°F19.6°C 52.9°F11.6°C 59.0°F15.0°C
Dew Point 56.6°F13.7°C 46.2°F7.9°C 52.6°F11.4°C
Winds 6.0 mph 9.7 kmh Calm Calm 2.0 mph W3.2 kmh W
Wind Gusts 10.0 mph16.1 kmh 2.0 mph3.2 kmh 5.0 mph8.0 kmh
Humidity 92% 64% 80%
Pressure 30.04 in1017.3 mb 29.81 in1009.5 mb -
Precipitation 0.00 in0.0 mm - -
Hour Temp Dew Point Humidity Winds Wind Gusts Pressure Precip Precip Rate Daily Precip Total
12:12 AM 55.2°F12.9°C 52.0°F11.1°C 89% 2.0 mph W3.2 kmh W 2.0 mph3.2 kmh 30.02 in1016.6 mb 0.00 in0.0 mm 0.00 in0.0 mm 0.00 in0.0 mm
12:33 AM 54.5°F12.5°C 51.9°F11.1°C 91% 1.0 mph W1.6 kmh W 2.0 mph3.2 kmh 30.04 in1017.3 mb 0.00 in0.0 mm 0.00 in0.0 mm 0.00 in0.0 mm
12:54 AM 54.1°F12.3°C 51.9°F11.1°C 92% 2.0 mph W3.2 kmh W 3.0 mph4.8 kmh 30.03 in1016.9 mb 0.00 in0.0 mm 0.00 in0.0 mm 0.00 in0.0 mm
01:15 AM 54.1°F12.3°C 51.9°F11.1°C 92% 2.0 mph W3.2 kmh W 3.0 mph4.8 kmh 30.04 in1017.3 mb 0.00 in0.0 mm 0.00 in0.0 mm 0.00 in0.0 mm
01:36 AM 53.8°F12.1°C 51.2°F10.7°C 91% 1.0 mph W1.6 kmh W 2.0 mph3.2 kmh 30.04 in1017.3 mb 0.00 in0.0 mm 0.00 in0.0 mm 0.00 in0.0 mm
01:57 AM 53.6°F12.0°C 51.0°F10.6°C 91% 4.0 mph W6.4 kmh W 5.0 mph8.0 kmh 30.03 in1016.9 mb 0.00 in0.0 mm 0.00 in0.0 mm 0.00 in0.0 mm
02:18 AM 54.1°F12.3°C 50.7°F10.4°C 88% 3.0 mph W4.8 kmh W 4.0 mph6.4 kmh 30.02 in1016.6 mb 0.00 in0.0 mm 0.00 in0.0 mm 0.00 in0.0 mm
02:39 AM 54.1°F12.3°C 50.7°F10.4°C 88% 2.0 mph W3.2 kmh W 2.0 mph3.2 kmh 30.01 in1016.3 mb 0.00 in0.0 mm 0.00 in0.0 mm 0.00 in0.0 mm
03:00 AM 54.0°F12.2°C 51.4°F10.8°C 91% 2.0 mph W3.2 kmh W 3.0 mph4.8 kmh 30.01 in1016.3 mb 0.00 in0.0 mm 0.00 in0.0 mm 0.00 in0.0 mm
03:21 AM 53.6°F12.0°C 50.7°F10.4°C 90% 1.0 mph W1.6 kmh W 2.0 mph3.2 kmh 30.01 in1016.3 mb 0.00 in0.0 mm 0.00 in0.0 mm 0.00 in0.0 mm
03:42 AM 52.9°F11.6°C 50.6°F10.3°C 92% 1.0 mph W1.6 kmh W 2.0 mph3.2 kmh 30.02 in1016.6 mb 0.00 in0.0 mm 0.00 in0.0 mm 0.00 in0.0 mm
04:03 AM 53.6°F12.0°C 51.0°F10.6°C 91% 5.0 mph W8.0 kmh W 8.0 mph12.9 kmh 30.01 in1016.3 mb 0.00 in0.0 mm 0.00 in0.0 mm 0.00 in0.0 mm
04:24 AM 54.3°F12.4°C 49.9°F9.9°C 85% 2.0 mph W3.2 kmh W 4.0 mph6.4 kmh 30.00 in1015.9 mb 0.00 in0.0 mm 0.00 in0.0 mm 0.00 in0.0 mm
04:45 AM 54.7°F12.6°C 49.6°F9.8°C 83% 2.0 mph W3.2 kmh W 3.0 mph4.8 kmh 29.99 in1015.6 mb 0.00 in0.0 mm 0.00 in0.0 mm 0.00 in0.0 mm
05:06 AM 54.0°F12.2°C 49.6°F9.8°C 85% 2.0 mph W3.2 kmh W 3.0 mph4.8 kmh 30.00 in1015.9 mb 0.00 in0.0 mm 0.00 in0.0 mm 0.00 in0.0 mm
05:27 AM 53.4°F11.9°C 50.0°F10.0°C 88% 2.0 mph W3.2 kmh W 2.0 mph3.2 kmh 30.00 in1015.9 mb 0.00 in0.0 mm 0.00 in0.0 mm 0.00 in0.0 mm
05:48 AM 53.1°F11.7°C 49.9°F9.9°C 89% 1.0 mph W1.6 kmh W 2.0 mph3.2 kmh 30.02 in1016.6 mb 0.00 in0.0 mm 0.00 in0.0 mm 0.00 in0.0 mm
06:21 AM 54.3°F12.4°C 50.5°F10.3°C 87% 1.0 mph W1.6 kmh W 2.0 mph3.2 kmh 30.01 in1016.3 mb 0.00 in0.0 mm 0.00 in0.0 mm 0.00 in0.0 mm
06:42 AM 55.5°F13.1°C 51.5°F10.8°C 86% 1.0 mph W1.6 kmh W 4.0 mph6.4 kmh 29.99 in1015.6 mb 0.00 in0.0 mm 0.00 in0.0 mm 0.00 in0.0 mm
07:03 AM 56.8°F13.8°C 51.8°F11.0°C 83% 1.0 mph W1.6 kmh W 3.0 mph4.8 kmh 29.98 in1015.2 mb 0.00 in0.0 mm 0.00 in0.0 mm 0.00 in0.0 mm
07:21 AM 58.1°F14.5°C 51.7°F10.9°C 79% Calm Calm 2.0 mph3.2 kmh 29.97 in1014.9 mb 0.00 in0.0 mm 0.00 in0.0 mm 0.00 in0.0 mm
07:42 AM 59.8°F15.4°C 52.5°F11.4°C 77% Calm Calm 2.0 mph3.2 kmh 29.95 in1014.2 mb 0.00 in0.0 mm 0.00 in0.0 mm 0.00 in0.0 mm
08:21 AM 59.4°F15.2°C 52.1°F11.2°C 77% 2.0 mph W3.2 kmh W 4.0 mph6.4 kmh 29.95 in1014.2 mb 0.00 in0.0 mm 0.00 in0.0 mm 0.00 in0.0 mm
08:42 AM 59.3°F15.2°C 51.9°F11.1°C 76% 1.0 mph W1.6 kmh W 4.0 mph6.4 kmh 29.95 in1014.2 mb 0.00 in0.0 mm 0.00 in0.0 mm 0.00 in0.0 mm
09:03 AM 61.4°F16.3°C 52.7°F11.5°C 73% Calm Calm 2.0 mph3.2 kmh 29.93 in1013.5 mb 0.00 in0.0 mm 0.00 in0.0 mm 0.00 in0.0 mm
09:21 AM 61.9°F16.6°C 52.9°F11.6°C 72% 1.0 mph W1.6 kmh W 4.0 mph6.4 kmh 29.92 in1013.2 mb 0.00 in0.0 mm 0.00 in0.0 mm 0.00 in0.0 mm
09:42 AM 62.3°F16.8°C 53.7°F12.1°C 73% 3.0 mph NW4.8 kmh NW 6.0 mph9.7 kmh 29.92 in1013.2 mb 0.00 in0.0 mm 0.00 in0.0 mm 0.00 in0.0 mm
10:03 AM 62.2°F16.8°C 54.2°F12.3°C 75% 3.0 mph W4.8 kmh W 7.0 mph11.3 kmh 29.91 in1012.9 mb 0.00 in0.0 mm 0.00 in0.0 mm 0.00 in0.0 mm
10:21 AM 63.1°F17.3°C 55.0°F12.8°C 75% 3.0 mph W4.8 kmh W 5.0 mph8.0 kmh 29.90 in1012.5 mb 0.00 in0.0 mm 0.00 in0.0 mm 0.00 in0.0 mm
10:42 AM 63.0°F17.2°C 55.8°F13.2°C 77% 4.0 mph W6.4 kmh W 7.0 mph11.3 kmh 29.91 in1012.9 mb 0.00 in0.0 mm 0.00 in0.0 mm 0.00 in0.0 mm
11:03 AM 64.2°F17.9°C 56.0°F13.3°C 75% 4.0 mph W6.4 kmh W 8.0 mph12.9 kmh 29.88 in1011.9 mb 0.00 in0.0 mm 0.00 in0.0 mm 0.00 in0.0 mm
11:21 AM 63.7°F17.6°C 56.6°F13.7°C 78% 6.0 mph W9.7 kmh W 9.0 mph14.5 kmh 29.89 in1012.2 mb 0.00 in0.0 mm 0.00 in0.0 mm 0.00 in0.0 mm
11:42 AM 64.7°F18.2°C 55.8°F13.2°C 73% 4.0 mph W6.4 kmh W 8.0 mph12.9 kmh 29.87 in1011.5 mb 0.00 in0.0 mm 0.00 in0.0 mm 0.00 in0.0 mm
12:03 PM 66.1°F18.9°C 55.5°F13.1°C 69% 4.0 mph W6.4 kmh W 7.0 mph11.3 kmh 29.86 in1011.2 mb 0.00 in0.0 mm 0.00 in0.0 mm 0.00 in0.0 mm
12:21 PM 66.7°F19.3°C 56.2°F13.4°C 69% 4.0 mph WNW6.4 kmh WNW 9.0 mph14.5 kmh 29.84 in1010.5 mb 0.00 in0.0 mm 0.00 in0.0 mm 0.00 in0.0 mm
12:42 PM 66.6°F19.2°C 55.8°F13.2°C 68% 4.0 mph W6.4 kmh W 8.0 mph12.9 kmh 29.83 in1010.2 mb 0.00 in0.0 mm 0.00 in0.0 mm 0.00 in0.0 mm
01:03 PM 65.7°F18.7°C 55.5°F13.1°C 70% 5.0 mph W8.0 kmh W 8.0 mph12.9 kmh 29.84 in1010.5 mb 0.00 in0.0 mm 0.00 in0.0 mm 0.00 in0.0 mm
01:21 PM 66.8°F19.3°C 55.4°F13.0°C 67% 4.0 mph WNW6.4 kmh WNW 8.0 mph12.9 kmh 29.82 in1009.8 mb 0.00 in0.0 mm 0.00 in0.0 mm 0.00 in0.0 mm
01:42 PM 66.2°F19.0°C 54.9°F12.7°C 67% 4.0 mph W6.4 kmh W 10.0 mph16.1 kmh 29.82 in1009.8 mb 0.00 in0.0 mm 0.00 in0.0 mm 0.00 in0.0 mm
02:21 PM 67.3°F19.6°C 54.6°F12.6°C 64% 3.0 mph W4.8 kmh W 8.0 mph12.9 kmh 29.81 in1009.5 mb 0.00 in0.0 mm 0.00 in0.0 mm 0.00 in0.0 mm
02:42 PM 64.5°F18.1°C 53.9°F12.2°C 69% 5.0 mph W8.0 kmh W 9.0 mph14.5 kmh 29.85 in1010.8 mb 0.00 in0.0 mm 0.00 in0.0 mm 0.00 in0.0 mm
03:21 PM 61.9°F16.6°C 54.2°F12.3°C 76% 4.0 mph W6.4 kmh W 8.0 mph12.9 kmh 29.87 in1011.5 mb 0.00 in0.0 mm 0.00 in0.0 mm 0.00 in0.0 mm
03:42 PM 62.7°F17.1°C 54.1°F12.3°C 73% 3.0 mph W4.8 kmh W 6.0 mph9.7 kmh 29.86 in1011.2 mb 0.00 in0.0 mm 0.00 in0.0 mm 0.00 in0.0 mm
04:03 PM 63.0°F17.2°C 54.3°F12.4°C 73% 3.0 mph W4.8 kmh W 6.0 mph9.7 kmh 29.86 in1011.2 mb 0.00 in0.0 mm 0.00 in0.0 mm 0.00 in0.0 mm
04:21 PM 62.2°F16.8°C 54.5°F12.5°C 76% 2.0 mph W3.2 kmh W 4.0 mph6.4 kmh 29.87 in1011.5 mb 0.00 in0.0 mm 0.00 in0.0 mm 0.00 in0.0 mm
04:42 PM 61.8°F16.6°C 54.6°F12.6°C 77% 2.0 mph W3.2 kmh W 3.0 mph4.8 kmh 29.87 in1011.5 mb 0.00 in0.0 mm 0.00 in0.0 mm 0.00 in0.0 mm
05:03 PM 62.4°F16.9°C 55.3°F12.9°C 78% Calm Calm 2.0 mph3.2 kmh 29.86 in1011.2 mb 0.00 in0.0 mm 0.00 in0.0 mm 0.00 in0.0 mm
05:21 PM 62.4°F16.9°C 55.0°F12.8°C 77% 3.0 mph W4.8 kmh W 5.0 mph8.0 kmh 29.86 in1011.2 mb 0.00 in0.0 mm 0.00 in0.0 mm 0.00 in0.0 mm
05:42 PM 60.5°F15.8°C 55.2°F12.9°C 82% 2.0 mph W3.2 kmh W 8.0 mph12.9 kmh 29.87 in1011.5 mb 0.00 in0.0 mm 0.00 in0.0 mm 0.00 in0.0 mm
06:03 PM 60.2°F15.7°C 55.2°F12.9°C 84% 2.0 mph W3.2 kmh W 5.0 mph8.0 kmh 29.88 in1011.9 mb 0.00 in0.0 mm 0.00 in0.0 mm 0.00 in0.0 mm
06:21 PM 59.9°F15.5°C 55.0°F12.8°C 84% 3.0 mph W4.8 kmh W 6.0 mph9.7 kmh 29.89 in1012.2 mb 0.00 in0.0 mm 0.00 in0.0 mm 0.00 in0.0 mm
06:42 PM 59.2°F15.1°C 54.9°F12.7°C 86% 2.0 mph W3.2 kmh W 4.0 mph6.4 kmh 29.90 in1012.5 mb 0.00 in0.0 mm 0.00 in0.0 mm 0.00 in0.0 mm
07:03 PM 59.0°F15.0°C 54.8°F12.7°C 86% 2.0 mph W3.2 kmh W 4.0 mph6.4 kmh 29.91 in1012.9 mb 0.00 in0.0 mm 0.00 in0.0 mm 0.00 in0.0 mm
07:21 PM 59.0°F15.0°C 55.1°F12.8°C 87% 2.0 mph W3.2 kmh W 5.0 mph8.0 kmh 29.91 in1012.9 mb 0.00 in0.0 mm 0.00 in0.0 mm 0.00 in0.0 mm
07:42 PM 58.8°F14.9°C 54.9°F12.7°C 87% 2.0 mph W3.2 kmh W 4.0 mph6.4 kmh 29.91 in1012.9 mb 0.00 in0.0 mm 0.00 in0.0 mm 0.00 in0.0 mm
08:03 PM 58.2°F14.6°C 54.4°F12.4°C 87% 2.0 mph W3.2 kmh W 4.0 mph6.4 kmh 29.92 in1013.2 mb 0.00 in0.0 mm 0.00 in0.0 mm 0.00 in0.0 mm
08:21 PM 58.1°F14.5°C 52.8°F11.6°C 83% 2.0 mph W3.2 kmh W 4.0 mph6.4 kmh 29.92 in1013.2 mb 0.00 in0.0 mm 0.00 in0.0 mm 0.00 in0.0 mm
08:42 PM 57.6°F14.2°C 50.8°F10.4°C 78% 1.0 mph NW1.6 kmh NW 4.0 mph6.4 kmh 29.93 in1013.5 mb 0.00 in0.0 mm 0.00 in0.0 mm 0.00 in0.0 mm
09:03 PM 57.0°F13.9°C 50.8°F10.4°C 80% 1.0 mph NW1.6 kmh NW 3.0 mph4.8 kmh 29.94 in1013.9 mb 0.00 in0.0 mm 0.00 in0.0 mm 0.00 in0.0 mm
09:21 PM 56.8°F13.8°C 49.4°F9.7°C 76% 3.0 mph NW4.8 kmh NW 7.0 mph11.3 kmh 29.95 in1014.2 mb 0.00 in0.0 mm 0.00 in0.0 mm 0.00 in0.0 mm
10:03 PM 56.0°F13.3°C 47.8°F8.8°C 74% 2.0 mph NW3.2 kmh NW 4.0 mph6.4 kmh 29.97 in1014.9 mb 0.00 in0.0 mm 0.00 in0.0 mm 0.00 in0.0 mm
10:21 PM 56.3°F13.5°C 48.3°F9.1°C 75% 2.0 mph NW3.2 kmh NW 4.0 mph6.4 kmh 29.97 in1014.9 mb 0.00 in0.0 mm 0.00 in0.0 mm 0.00 in0.0 mm
10:42 PM 56.6°F13.7°C 49.1°F9.5°C 76% 2.0 mph NW3.2 kmh NW 3.0 mph4.8 kmh 29.96 in1014.6 mb 0.00 in0.0 mm 0.00 in0.0 mm 0.00 in0.0 mm
10:57 PM 56.5°F13.6°C 47.9°F8.8°C 73% 4.0 mph NW6.4 kmh NW 6.0 mph9.7 kmh 29.96 in1014.6 mb 0.00 in0.0 mm 0.00 in0.0 mm 0.00 in0.0 mm
11:18 PM 55.4°F13.0°C 46.2°F7.9°C 71% 2.0 mph NW3.2 kmh NW 3.0 mph4.8 kmh 29.98 in1015.2 mb 0.00 in0.0 mm 0.00 in0.0 mm 0.00 in0.0 mm
11:39 PM 55.0°F12.8°C 46.2°F7.9°C 72% 2.0 mph NW3.2 kmh NW 4.0 mph6.4 kmh 29.97 in1014.9 mb 0.00 in0.0 mm 0.00 in0.0 mm 0.00 in0.0 mm